87FD weather

Palm Beach Gardens Medical Center Heliport
Palm Beach Gardens, Florida, United States

Public forecast

Using degrees Fahrenheit for public forecast. Weather courtesy of forecast.io.

Closest aviation weather report (METAR) to Palm Beach Gardens Medical Center Heliport

Closest report is Palm Beach International Airport, 8.8 nm (16.3 km) S. Retrieved 2019/10/16 02:53 UTC (47 minutes ago):

KPBI 160253Z 12006KT 10SM FEW030 SCT050 26/20 A3000 RMK AO2 SLP157 T02610200 50003

Closest aviation forecast (TAF) to Palm Beach Gardens Medical Center Heliport

Closest forecast is Palm Beach International Airport, 8.8 nm (16.3 km) S. Retrieved 2019-10-16 00:27 UTC (3 hours ago):

TAF KPBI 152321Z 1600/1624 12008KT P6SM SCT025 BKN250 FM160400 VRB04KT P6SM SCT025 SCT080 FM161500 21010KT P6SM SCT025 SCT150